Jimna, Australia
Current Conditions -  °F | °C
As of 6:00 AM on Tuesday 25 Nov 2014 (Local Time) from YBBN Reporting Station
Broken Clouds Broken Clouds  
Wind Chill: 72°   Ceiling: 34000
Heat Index: 72°   Visibility: 6mi
Dew Point: 66°   Wind: 8mph
Humidity: 83%   Direction: 320°NW
Pressure: 29.97"   Gusts: NA
Location:  26.66°S, 152.46°E
Report Text: YBBN 242000Z 32007KT 9999 FEW020 BKN340 22/19 Q1015 NOSIG
Loading
Personal Weather Stations






























Interactive Weather Map New forecast layout! Learn more

10-Day Weather Forecast

Advertisements
Track Severe Weather on mobile